.
WxDataArchive / Data Records for 2011-04-07
2011-04-06 April 2011 2011-04-08

Data Records for Thursday, 07 April 2011

Time	Temp	Chill	HIndex	Humid	Dewpt	 Wind 	HiWind	WindDir	Rain 	Barom 
-----	----	-----	------	-----	-----	------	------	-------	-----	----- 
00:00	44.2	44.2	44.2	83	39.4	2	4	112	0.00	29.944 
00:05	44.2	44.2	44.2	83	39.4	1	4	112	0.00	29.944 
00:10	44.1	44.1	44.1	83	39.3	2	4	90	0.00	29.944 
00:15	44.1	44.1	44.1	83	39.3	2	5	90	0.00	29.941 
00:20	43.9	43.9	43.9	83	39.1	2	4	90	0.00	29.941 
00:25	43.8	43.8	43.8	83	39.0	2	6	90	0.00	29.941 
00:30	43.6	43.6	43.6	84	39.1	2	4	90	0.00	29.938 
00:35	43.6	43.6	43.6	84	39.1	1	3	90	0.00	29.938 
00:40	43.5	43.5	43.5	84	39.0	2	5	90	0.00	29.938 
00:45	43.3	43.3	43.3	84	38.8	3	6	90	0.00	29.944 
00:50	43.2	43.2	43.2	84	38.7	2	5	90	0.00	29.944 
00:55	43.2	43.2	43.2	84	38.7	3	7	90	0.00	29.944 
01:00	43.1	43.1	43.1	84	38.6	1	3	112	0.00	29.944 
01:05	43.1	43.1	43.1	84	38.6	0	2	112	0.00	29.944 
01:10	43.1	43.1	43.1	84	38.6	2	5	112	0.00	29.944 
01:15	42.9	42.9	42.9	84	38.4	1	3	90	0.00	29.940 
01:20	42.9	42.9	42.9	84	38.4	1	4	90	0.00	29.940 
01:25	42.9	42.9	42.9	84	38.4	2	4	90	0.00	29.940 
01:30	42.8	42.8	42.8	85	38.6	1	4	90	0.00	29.941 
01:35	42.8	42.8	42.8	85	38.6	0	2	90	0.00	29.941 
01:40	42.8	42.8	42.8	85	38.6	0	3	90	0.00	29.941 
01:45	42.8	42.8	42.8	85	38.6	0	4	90	0.00	29.950 
01:50	42.6	42.6	42.6	84	38.1	0	2	90	0.00	29.950 
01:55	42.6	42.6	42.6	85	38.4	0	1	90	0.00	29.950 
02:00	42.5	42.5	42.5	85	38.3	0	3	90	0.00	29.955 
02:05	42.5	42.5	42.5	84	38.0	0	2	90	0.00	29.955 
02:10	42.3	42.3	42.3	84	37.8	0	1	90	0.00	29.955 
02:15	42.2	42.2	42.2	84	37.7	0	2	90	0.00	29.954 
02:20	42.2	42.2	42.2	85	38.0	0	1	90	0.00	29.954 
02:25	42.2	42.2	42.2	85	38.0	1	3	90	0.00	29.954 
02:30	42.1	42.1	42.1	85	37.9	0	2	90	0.00	29.953 
02:35	41.9	41.9	41.9	85	37.7	0	2	90	0.00	29.953 
02:40	41.8	41.8	41.8	86	37.9	0	2	90	0.00	29.953 
02:45	41.5	41.5	41.5	86	37.6	0	1	90	0.00	29.953 
02:50	41.3	41.3	41.3	86	37.4	0	2	90	0.00	29.953 
02:55	41.1	41.1	41.1	86	37.2	0	1	90	0.00	29.953 
03:00	40.9	40.9	40.9	86	37.0	0	2	90	0.00	29.956 
03:05	40.8	40.8	40.8	87	37.2	0	1	90	0.00	29.956 
03:10	40.6	40.6	40.6	87	37.0	1	3	90	0.00	29.956 
03:15	40.5	40.5	40.5	87	36.9	0	2	90	0.00	29.951 
03:20	40.3	40.3	40.3	87	36.7	0	2	90	0.00	29.951 
03:25	40.2	40.2	40.2	88	36.9	0	2	90	0.00	29.951 
03:30	40.1	40.1	40.1	88	36.8	0	3	90	0.00	29.953 
03:35	40.1	40.1	40.1	88	36.8	0	3	90	0.00	29.953 
03:40	39.9	39.9	39.9	88	36.6	0	3	90	0.00	29.953 
03:45	39.8	39.8	39.8	88	36.5	0	1	90	0.00	29.955 
03:50	39.6	39.6	39.6	88	36.3	0	2	90	0.00	29.955 
03:55	39.5	39.5	39.5	88	36.2	0	3	90	0.00	29.955 
04:00	39.5	39.5	39.5	89	36.5	1	3	90	0.00	29.955 
04:05	39.3	39.3	39.3	89	36.3	0	2	90	0.00	29.955 
04:10	39.3	39.3	39.3	89	36.3	1	3	90	0.00	29.955 
04:15	39.2	39.2	39.2	89	36.2	1	4	90	0.00	29.957 
04:20	39.1	39.1	39.1	89	36.1	1	5	112	0.00	29.957 
04:25	38.9	38.9	38.9	90	36.2	1	5	90	0.00	29.957 
04:30	38.9	38.9	38.9	90	36.2	1	3	22	0.00	29.963 
04:35	38.9	38.9	38.9	91	36.5	1	4	45	0.00	29.963 
04:40	38.9	38.9	38.9	91	36.5	2	5	68	0.00	29.963 
04:45	38.9	38.9	38.9	91	36.5	1	4	68	0.00	29.967 
04:50	38.9	38.9	38.9	91	36.5	1	4	68	0.00	29.967 
04:55	38.9	38.9	38.9	92	36.8	0	3	45	0.00	29.967 
05:00	38.9	38.9	38.9	92	36.8	1	4	45	0.00	29.977 
05:05	38.9	38.9	38.9	92	36.8	1	4	90	0.00	29.977 
05:10	38.8	38.8	38.8	92	36.7	1	3	45	0.00	29.977 
05:15	38.8	38.8	38.8	92	36.7	2	7	112	0.00	29.974 
05:20	38.6	38.6	38.6	92	36.5	1	4	22	0.00	29.974 
05:25	38.6	38.6	38.6	92	36.5	1	3	68	0.00	29.974 
05:30	38.6	38.6	38.6	92	36.5	1	4	68	0.00	29.978 
05:35	38.5	38.5	38.5	92	36.4	1	3	68	0.00	29.978 
05:40	38.5	38.5	38.5	92	36.4	1	3	68	0.00	29.978 
05:45	38.3	38.3	38.3	92	36.2	1	3	22	0.00	29.991 
05:50	38.3	38.3	38.3	93	36.5	1	4	90	0.00	29.991 
05:55	38.3	38.3	38.3	93	36.5	1	3	90	0.00	29.991 
06:00	38.3	38.3	38.3	93	36.5	0	2	90	0.00	30.004 
06:05	38.2	38.2	38.2	93	36.4	0	4	90	0.00	30.004 
06:10	38.2	38.2	38.2	93	36.4	1	3	90	0.00	30.004 
06:15	38.0	38.0	38.0	93	36.2	0	3	90	0.00	30.012 
06:20	38.0	38.0	38.0	93	36.2	2	6	112	0.00	30.012 
06:25	37.9	37.9	37.9	93	36.1	0	4	135	0.00	30.012 
06:30	37.9	37.9	37.9	93	36.1	1	3	135	0.00	30.015 
06:35	37.9	37.9	37.9	93	36.1	0	4	45	0.00	30.015 
06:40	37.9	37.9	37.9	93	36.1	1	4	45	0.00	30.015 
06:45	37.8	37.8	37.8	93	36.0	1	4	112	0.00	30.024 
06:50	37.6	37.6	37.6	93	35.8	1	4	90	0.00	30.024 
06:55	37.6	37.6	37.6	93	35.8	1	10	90	0.00	30.024 
07:00	37.8	37.8	37.8	94	36.2	1	4	135	0.00	30.036 
07:05	37.8	37.8	37.8	94	36.2	1	3	112	0.00	30.036 
07:10	37.8	37.8	37.8	94	36.2	0	2	68	0.00	30.036 
07:15	37.8	37.8	37.8	94	36.2	1	5	68	0.00	30.054 
07:20	37.6	37.6	37.6	94	36.0	0	2	90	0.00	30.054 
07:25	37.6	37.6	37.6	94	36.0	1	4	45	0.00	30.054 
07:30	37.6	37.6	37.6	94	36.0	1	3	45	0.00	30.064 
07:35	37.5	37.5	37.5	94	35.9	1	6	112	0.00	30.064 
07:40	37.5	37.5	37.5	94	35.9	2	6	90	0.00	30.064 
07:45	37.3	37.3	37.3	94	35.7	1	4	22	0.00	30.070 
07:50	37.3	37.3	37.3	94	35.7	2	8	90	0.00	30.070 
07:55	37.5	37.5	37.5	94	35.9	2	10	90	0.00	30.070 
08:00	37.5	37.5	37.5	94	35.9	3	7	112	0.00	30.079 
08:05	37.5	37.5	37.5	95	36.2	2	6	90	0.00	30.079 
08:10	37.5	37.5	37.5	94	35.9	1	5	90	0.00	30.079 
08:15	37.3	37.3	37.3	95	36.0	1	3	90	0.00	30.089 
08:20	37.3	37.3	37.3	95	36.0	1	4	68	0.00	30.089 
08:25	37.3	37.3	37.3	95	36.0	2	4	112	0.00	30.089 
08:30	37.3	37.3	37.3	95	36.0	2	6	112	0.00	30.098 
08:35	37.3	37.3	37.3	95	36.0	2	6	112	0.00	30.098 
08:40	37.3	37.3	37.3	95	36.0	0	2	68	0.00	30.098 
08:45	37.3	37.3	37.3	95	36.0	0	2	68	0.00	30.100 
08:50	37.5	37.5	37.5	95	36.2	2	6	68	0.00	30.100 
08:55	37.5	37.5	37.5	95	36.2	1	4	90	0.00	30.100 
09:00	37.6	37.6	37.6	95	36.3	1	3	90	0.00	30.097 
09:05	37.5	37.5	37.5	95	36.2	1	5	112	0.00	30.097 
09:10	37.3	37.3	37.3	95	36.0	3	7	112	0.00	30.097 
09:15	37.2	37.2	37.2	95	35.9	3	13	112	0.00	30.102 
09:20	37.2	37.2	37.2	95	35.9	2	6	90	0.00	30.102 
09:25	37.3	37.3	37.3	95	36.0	3	6	90	0.00	30.102 
09:30	37.3	37.3	37.3	95	36.0	3	6	112	0.00	30.101 
09:35	37.3	37.3	37.3	95	36.0	3	7	90	0.00	30.101 
09:40	37.3	34.2	37.3	95	36.0	4	9	112	0.00	30.101 
09:45	37.5	37.5	37.5	95	36.2	1	4	68	0.00	30.114 
09:50	37.6	37.6	37.6	95	36.3	1	4	68	0.00	30.114 
09:55	37.8	37.8	37.8	95	36.5	1	3	68	0.00	30.114 
10:00	37.8	37.8	37.8	95	36.5	3	7	112	0.00	30.112 
10:05	37.8	37.8	37.8	95	36.5	2	5	112	0.00	30.112 
10:10	38.0	38.0	38.0	95	36.7	1	5	22	0.00	30.112 
10:15	38.0	38.0	38.0	95	36.7	3	10	90	0.00	30.116 
10:20	37.9	37.9	37.9	95	36.6	3	6	90	0.00	30.116 
10:25	37.9	34.9	37.9	94	36.3	4	9	90	0.00	30.116 
10:30	37.9	37.9	37.9	94	36.3	3	6	90	0.00	30.117 
10:35	38.0	38.0	38.0	94	36.4	1	5	112	0.00	30.117 
10:40	38.3	38.3	38.3	94	36.7	1	4	68	0.00	30.117 
10:45	38.5	38.5	38.5	94	36.9	1	5	112	0.00	30.117 
10:50	38.8	38.8	38.8	94	37.2	1	5	90	0.00	30.117 
10:55	38.8	38.8	38.8	94	37.2	2	7	90	0.00	30.117 
11:00	38.8	38.8	38.8	93	37.0	2	7	90	0.00	30.119 
11:05	38.9	38.9	38.9	93	37.1	1	4	112	0.00	30.119 
11:10	38.9	38.9	38.9	93	37.1	3	6	112	0.00	30.119 
11:15	38.9	38.9	38.9	93	37.1	3	10	90	0.00	30.128 
11:20	39.1	39.1	39.1	92	37.0	3	7	90	0.00	30.128 
11:25	39.3	39.3	39.3	92	37.2	2	9	90	0.00	30.128 
11:30	39.2	39.2	39.2	92	37.1	3	10	90	0.00	30.124 
11:35	39.5	39.5	39.5	92	37.4	1	4	112	0.00	30.124 
11:40	39.8	39.8	39.8	92	37.7	1	5	90	0.00	30.124 
11:45	40.1	40.1	40.1	91	37.7	2	6	90	0.00	30.122 
11:50	40.2	40.2	40.2	90	37.5	3	5	112	0.00	30.122 
11:55	40.3	40.3	40.3	90	37.6	2	7	90	0.00	30.122 
12:00	40.5	40.5	40.5	89	37.5	2	6	112	0.00	30.123 
12:05	40.8	40.8	40.8	89	37.8	2	4	112	0.00	30.123 
12:10	40.9	40.9	40.9	89	37.9	3	7	112	0.00	30.123 
12:15	41.2	41.2	41.2	89	38.2	1	4	90	0.00	30.117 
12:20	41.5	39.1	41.5	87	37.9	4	11	90	0.00	30.117 
12:25	41.6	41.6	41.6	87	38.0	2	10	112	0.00	30.117 
12:30	41.8	41.8	41.8	86	37.9	3	7	112	0.00	30.117 
12:35	41.9	41.9	41.9	85	37.7	2	5	112	0.00	30.117 
12:40	42.2	39.9	42.2	85	38.0	4	9	90	0.00	30.117 
12:45	42.3	42.3	42.3	85	38.1	3	5	112	0.00	30.127 
12:50	42.5	42.5	42.5	84	38.0	3	7	90	0.00	30.127 
12:55	42.6	42.6	42.6	83	37.8	2	5	112	0.00	30.127 
13:00	42.8	42.8	42.8	84	38.3	2	5	90	0.00	30.123 
13:05	42.9	40.7	42.9	82	37.8	4	10	90	0.00	30.123 
13:10	43.2	43.2	43.2	83	38.4	3	9	90	0.00	30.123 
13:15	43.9	43.9	43.9	82	38.8	3	8	90	0.00	30.112 
13:20	43.9	41.1	43.9	80	38.1	5	12	112	0.00	30.112 
13:25	44.1	42.1	44.1	80	38.3	4	7	112	0.00	30.112 
13:30	44.1	44.1	44.1	80	38.3	3	7	90	0.00	30.112 
13:35	44.1	44.1	44.1	81	38.6	3	10	112	0.00	30.112 
13:40	44.2	44.2	44.2	80	38.4	2	4	90	0.00	30.112 
13:45	44.5	44.5	44.5	79	38.4	2	10	90	0.00	30.110 
13:50	44.3	44.3	44.3	79	38.2	2	5	45	0.00	30.110 
13:55	44.5	44.5	44.5	79	38.4	2	5	68	0.00	30.110 
14:00	44.6	44.6	44.6	80	38.8	3	7	112	0.00	30.112 
14:05	44.9	44.9	44.9	78	38.5	2	7	112	0.00	30.112 
14:10	45.1	45.1	45.1	78	38.7	3	7	90	0.00	30.112 
14:15	44.9	43.0	44.9	77	38.1	4	9	90	0.00	30.114 
14:20	44.9	44.9	44.9	78	38.5	3	9	90	0.00	30.114 
14:25	45.2	45.2	45.2	78	38.8	2	7	112	0.00	30.114 
14:30	45.2	45.2	45.2	78	38.8	3	6	112	0.00	30.118 
14:35	45.2	45.2	45.2	77	38.4	3	9	112	0.00	30.118 
14:40	45.2	45.2	45.2	78	38.8	2	7	338	0.00	30.118 
14:45	45.2	45.2	45.2	77	38.4	2	7	135	0.00	30.126 
14:50	45.1	45.1	45.1	78	38.7	2	8	90	0.00	30.126 
14:55	44.9	44.9	44.9	78	38.5	3	6	112	0.00	30.126 
15:00	45.1	45.1	45.1	78	38.7	2	6	90	0.00	30.129 
15:05	45.1	45.1	45.1	77	38.3	2	7	68	0.00	30.129 
15:10	44.9	44.9	44.9	77	38.1	3	10	90	0.00	30.129 
15:15	44.8	42.9	44.8	77	38.0	4	8	112	0.00	30.130 
15:20	44.6	44.6	44.6	78	38.2	2	9	112	0.00	30.130 
15:25	44.6	42.6	44.6	79	38.5	4	6	90	0.00	30.130 
15:30	44.8	44.8	44.8	78	38.4	2	7	90	0.00	30.125 
15:35	44.9	44.9	44.9	78	38.5	3	7	90	0.00	30.125 
15:40	44.9	43.0	44.9	78	38.5	4	9	90	0.00	30.125 
15:45	44.8	44.8	44.8	78	38.4	3	7	90	0.00	30.116 
15:50	44.8	44.8	44.8	77	38.0	3	10	112	0.00	30.116 
15:55	44.9	43.0	44.9	78	38.5	4	10	112	0.00	30.116 
16:00	45.2	45.2	45.2	79	39.1	2	6	112	0.00	30.100 
16:05	45.7	45.7	45.7	78	39.2	3	9	90	0.00	30.100 
16:10	46.0	46.0	46.0	76	38.9	3	12	112	0.00	30.100 
16:15	46.1	44.4	46.1	76	39.0	4	10	90	0.00	30.084 
16:20	46.2	44.5	46.2	76	39.1	4	14	112	0.00	30.084 
16:25	46.5	44.8	46.5	75	39.0	4	12	112	0.00	30.084 
16:30	46.7	45.1	46.7	75	39.2	4	11	90	0.00	30.069 
16:35	46.8	46.8	46.8	74	39.0	3	12	112	0.00	30.069 
16:40	46.5	44.8	46.5	75	39.0	4	11	22	0.00	30.069 
16:45	46.7	46.7	46.7	75	39.2	2	9	112	0.00	30.071 
16:50	46.7	46.7	46.7	74	38.9	3	9	90	0.00	30.071 
16:55	46.4	44.7	46.4	74	38.6	4	10	90	0.00	30.071 
17:00	46.4	46.4	46.4	74	38.6	3	6	90	0.00	30.082 
17:05	46.4	44.7	46.4	74	38.6	4	8	112	0.00	30.082 
17:10	46.4	44.0	46.4	73	38.2	5	9	90	0.00	30.082 
17:15	46.4	44.0	46.4	73	38.2	5	11	90	0.00	30.081 
17:20	46.4	46.4	46.4	73	38.2	3	9	90	0.00	30.081 
17:25	46.5	44.8	46.5	73	38.3	4	7	90	0.00	30.081 
17:30	46.5	46.5	46.5	73	38.3	3	6	90	0.00	30.081 
17:35	46.5	46.5	46.5	74	38.7	2	4	68	0.00	30.081 
17:40	46.5	46.5	46.5	74	38.7	3	7	90	0.00	30.081 
17:45	46.4	44.7	46.4	74	38.6	4	9	112	0.00	30.083 
17:50	46.2	46.2	46.2	75	38.7	3	9	112	0.00	30.083 
17:55	46.1	44.4	46.1	75	38.6	4	7	90	0.00	30.083 
18:00	45.8	45.8	45.8	76	38.7	3	7	112	0.00	30.090 
18:05	45.5	43.7	45.5	75	38.0	4	9	90	0.00	30.090 
18:10	45.4	45.4	45.4	76	38.3	3	9	90	0.00	30.090 
18:15	45.2	45.2	45.2	76	38.1	3	6	90	0.00	30.088 
18:20	45.1	43.2	45.1	76	38.0	4	6	112	0.00	30.088 
18:25	45.1	45.1	45.1	76	38.0	3	6	90	0.00	30.088 
18:30	44.9	43.0	44.9	76	37.8	4	11	90	0.00	30.084 
18:35	44.9	43.0	44.9	77	38.1	4	10	90	0.00	30.084 
18:40	44.8	42.9	44.8	77	38.0	4	9	90	0.00	30.084 
18:45	44.8	44.8	44.8	77	38.0	3	10	90	0.00	30.083 
18:50	44.8	42.9	44.8	77	38.0	4	9	90	0.00	30.083 
18:55	44.8	44.8	44.8	78	38.4	2	7	90	0.00	30.083 
19:00	44.8	42.9	44.8	78	38.4	4	13	90	0.00	30.082 
19:05	44.6	41.9	44.6	78	38.2	5	10	90	0.00	30.082 
19:10	44.6	44.6	44.6	78	38.2	3	10	112	0.00	30.082 
19:15	44.6	42.6	44.6	78	38.2	4	8	90	0.00	30.082 
19:20	44.5	44.5	44.5	78	38.1	3	7	90	0.00	30.082 
19:25	44.5	42.5	44.5	78	38.1	4	10	90	0.00	30.082 
19:30	44.3	44.3	44.3	79	38.2	3	7	112	0.00	30.087 
19:35	44.3	44.3	44.3	79	38.2	2	6	112	0.00	30.087 
19:40	44.3	42.3	44.3	79	38.2	4	9	112	0.00	30.087 
19:45	44.3	44.3	44.3	79	38.2	3	6	90	0.00	30.089 
19:50	44.3	44.3	44.3	79	38.2	2	4	90	0.00	30.089 
19:55	44.2	44.2	44.2	79	38.1	3	6	90	0.00	30.089 
20:00	44.2	44.2	44.2	79	38.1	3	6	90	0.00	30.098 
20:05	44.1	44.1	44.1	79	38.0	3	5	90	0.00	30.098 
20:10	44.1	44.1	44.1	79	38.0	2	6	112	0.00	30.098 
20:15	44.1	44.1	44.1	80	38.3	2	5	90	0.00	30.099 
20:20	43.9	43.9	43.9	80	38.1	2	6	112	0.00	30.099 
20:25	43.9	43.9	43.9	80	38.1	2	6	112	0.00	30.099 
20:30	43.9	43.9	43.9	80	38.1	1	5	90	0.00	30.105 
20:35	43.9	43.9	43.9	80	38.1	2	4	90	0.00	30.105 
20:40	43.9	43.9	43.9	81	38.5	1	5	90	0.00	30.105 
20:45	43.8	43.8	43.8	82	38.7	2	4	90	0.00	30.099 
20:50	43.3	43.3	43.3	83	38.5	3	9	90	0.00	30.099 
20:55	43.1	40.9	43.1	84	38.6	4	7	90	0.00	30.099 
21:00	42.8	42.8	42.8	85	38.6	2	5	112	0.00	30.095 
21:05	42.5	42.5	42.5	86	38.6	3	5	90	0.00	30.095 
21:10	42.3	42.3	42.3	87	38.7	3	6	90	0.00	30.095 
21:15	42.3	42.3	42.3	87	38.7	2	5	90	0.00	30.099 
21:20	42.2	42.2	42.2	88	38.9	1	4	90	0.00	30.099 
21:25	42.2	42.2	42.2	88	38.9	2	5	90	0.00	30.099 
21:30	42.2	42.2	42.2	88	38.9	2	6	90	0.00	30.113 
21:35	42.2	42.2	42.2	88	38.9	3	9	90	0.00	30.113 
21:40	42.2	42.2	42.2	88	38.9	3	7	112	0.00	30.113 
21:45	42.2	42.2	42.2	88	38.9	3	9	90	0.00	30.107 
21:50	42.2	42.2	42.2	88	38.9	2	5	22	0.00	30.107 
21:55	42.1	42.1	42.1	88	38.8	2	9	90	0.01	30.107 
22:00	42.1	42.1	42.1	89	39.1	3	7	45	0.00	30.087 
22:05	41.9	41.9	41.9	89	38.9	2	8	45	0.00	30.087 
22:10	41.8	41.8	41.8	89	38.8	3	10	112	0.00	30.087 
22:15	41.6	41.6	41.6	90	38.9	3	9	112	0.01	30.087 
22:20	41.6	41.6	41.6	90	38.9	3	11	22	0.00	30.087 
22:25	41.5	41.5	41.5	89	38.5	3	10	45	0.00	30.087 
22:30	41.5	41.5	41.5	89	38.5	2	12	112	0.00	30.096 
22:35	41.5	41.5	41.5	90	38.8	2	4	68	0.00	30.096 
22:40	41.5	38.2	41.5	90	38.8	5	10	90	0.00	30.096 
22:45	41.5	39.1	41.5	89	38.5	4	12	112	0.00	30.086 
22:50	41.5	41.5	41.5	90	38.8	3	6	68	0.00	30.086 
22:55	41.3	41.3	41.3	89	38.3	2	7	112	0.00	30.086 
23:00	41.3	38.8	41.3	89	38.3	4	9	90	0.00	30.070 
23:05	41.2	41.2	41.2	90	38.5	3	10	112	0.00	30.070 
23:10	41.1	41.1	41.1	90	38.4	3	8	112	0.00	30.070 
23:15	41.1	41.1	41.1	90	38.4	3	7	112	0.00	30.067 
23:20	40.9	40.9	40.9	90	38.2	3	7	112	0.00	30.067 
23:25	40.9	40.9	40.9	90	38.2	3	6	112	0.00	30.067 
23:30	40.9	37.5	40.9	90	38.2	5	11	90	0.00	30.046 
23:35	40.9	37.5	40.9	90	38.2	5	11	90	0.00	30.046 
23:40	40.9	40.9	40.9	90	38.2	3	9	112	0.00	30.046 
23:45	41.1	38.6	41.1	89	38.1	4	9	112	0.00	30.049 
23:50	41.1	41.1	41.1	89	38.1	3	10	112	0.00	30.049 
23:55	41.1	41.1	41.1	89	38.1	2	7	90	0.00	30.049 

CoCoRaHS
IN-AL-39
A2 Web Hosting
Creative Commons License
GoDaddy
search engine by freefind advanced

loaded 2018-11-15 13:38:03 • last modified 2010-11-18 10:43:29
Privacy PolicyDisclaimer
• wx.awcolley.com is powered by PmWiki v.2002016 •
• all content (unless otherwise noted) © 2018 A W Colley